sensor_id;sensor_type;location;lat;lon;timestamp;P1;durP1;ratioP1;P2;durP2;ratioP2
26953;SDS011;14508;50.924;11.600;2023-04-03T00:00:37;8.55;;;1.80;;
26953;SDS011;14508;50.924;11.600;2023-04-03T00:03:06;6.95;;;1.63;;
26953;SDS011;14508;50.924;11.600;2023-04-03T00:05:34;6.03;;;1.35;;
26953;SDS011;14508;50.924;11.600;2023-04-03T00:08:02;5.68;;;1.40;;
26953;SDS011;14508;50.924;11.600;2023-04-03T00:10:30;6.15;;;0.90;;
26953;SDS011;14508;50.924;11.600;2023-04-03T00:12:58;5.57;;;1.50;;
26953;SDS011;14508;50.924;11.600;2023-04-03T00:15:26;2.83;;;1.05;;
26953;SDS011;14508;50.924;11.600;2023-04-03T00:17:54;4.43;;;1.10;;
26953;SDS011;14508;50.924;11.600;2023-04-03T00:20:24;4.68;;;1.80;;
26953;SDS011;14508;50.924;11.600;2023-04-03T00:22:53;6.25;;;1.50;;
26953;SDS011;14508;50.924;11.600;2023-04-03T00:25:22;7.00;;;1.55;;
26953;SDS011;14508;50.924;11.600;2023-04-03T00:27:49;5.68;;;1.85;;
26953;SDS011;14508;50.924;11.600;2023-04-03T00:30:18;7.03;;;1.50;;
26953;SDS011;14508;50.924;11.600;2023-04-03T00:32:47;9.27;;;1.63;;
26953;SDS011;14508;50.924;11.600;2023-04-03T00:35:16;6.47;;;1.30;;
26953;SDS011;14508;50.924;11.600;2023-04-03T00:37:46;2.28;;;1.02;;
26953;SDS011;14508;50.924;11.600;2023-04-03T00:40:14;7.60;;;1.65;;
26953;SDS011;14508;50.924;11.600;2023-04-03T00:42:43;6.95;;;1.65;;
26953;SDS011;14508;50.924;11.600;2023-04-03T00:45:24;7.18;;;1.38;;
26953;SDS011;14508;50.924;11.600;2023-04-03T00:47:56;12.02;;;1.95;;
26953;SDS011;14508;50.924;11.600;2023-04-03T00:50:26;6.18;;;1.75;;
26953;SDS011;14508;50.924;11.600;2023-04-03T00:52:55;10.85;;;2.33;;
26953;SDS011;14508;50.924;11.600;2023-04-03T00:55:24;9.30;;;2.03;;
26953;SDS011;14508;50.924;11.600;2023-04-03T00:57:52;5.43;;;1.88;;
26953;SDS011;14508;50.924;11.600;2023-04-03T01:00:22;4.35;;;1.90;;
26953;SDS011;14508;50.924;11.600;2023-04-03T01:02:51;5.72;;;2.28;;
26953;SDS011;14508;50.924;11.600;2023-04-03T01:05:20;11.60;;;2.25;;
26953;SDS011;14508;50.924;11.600;2023-04-03T01:07:49;10.38;;;2.53;;
26953;SDS011;14508;50.924;11.600;2023-04-03T01:10:19;9.98;;;2.28;;
26953;SDS011;14508;50.924;11.600;2023-04-03T01:12:48;12.95;;;2.90;;
26953;SDS011;14508;50.924;11.600;2023-04-03T01:15:18;11.43;;;2.33;;
26953;SDS011;14508;50.924;11.600;2023-04-03T01:17:48;6.35;;;2.55;;
26953;SDS011;14508;50.924;11.600;2023-04-03T01:23:28;12.05;;;2.35;;
26953;SDS011;14508;50.924;11.600;2023-04-03T01:26:08;8.43;;;2.90;;
26953;SDS011;14508;50.924;11.600;2023-04-03T01:28:38;8.60;;;2.42;;
26953;SDS011;14508;50.924;11.600;2023-04-03T01:31:08;11.57;;;2.75;;
26953;SDS011;14508;50.924;11.600;2023-04-03T01:33:45;9.48;;;2.35;;
26953;SDS011;14508;50.924;11.600;2023-04-03T01:36:14;9.07;;;2.75;;
26953;SDS011;14508;50.924;11.600;2023-04-03T01:38:43;10.43;;;2.72;;
26953;SDS011;14508;50.924;11.600;2023-04-03T01:41:11;6.72;;;2.60;;
26953;SDS011;14508;50.924;11.600;2023-04-03T01:43:40;12.52;;;3.22;;
26953;SDS011;14508;50.924;11.600;2023-04-03T01:46:08;13.40;;;2.70;;
26953;SDS011;14508;50.924;11.600;2023-04-03T01:48:37;5.75;;;2.25;;
26953;SDS011;14508;50.924;11.600;2023-04-03T01:51:06;10.30;;;2.80;;
26953;SDS011;14508;50.924;11.600;2023-04-03T01:53:34;12.85;;;2.67;;
26953;SDS011;14508;50.924;11.600;2023-04-03T01:56:02;12.40;;;2.35;;
26953;SDS011;14508;50.924;11.600;2023-04-03T01:58:31;10.52;;;2.60;;
26953;SDS011;14508;50.924;11.600;2023-04-03T02:00:59;5.68;;;2.10;;
26953;SDS011;14508;50.924;11.600;2023-04-03T02:03:28;8.82;;;2.83;;
26953;SDS011;14508;50.924;11.600;2023-04-03T02:05:57;9.63;;;2.67;;
26953;SDS011;14508;50.924;11.600;2023-04-03T02:08:26;7.20;;;2.08;;
26953;SDS011;14508;50.924;11.600;2023-04-03T02:10:54;14.93;;;2.50;;
26953;SDS011;14508;50.924;11.600;2023-04-03T02:13:22;4.97;;;2.13;;
26953;SDS011;14508;50.924;11.600;2023-04-03T02:15:50;5.22;;;2.17;;
26953;SDS011;14508;50.924;11.600;2023-04-03T02:18:18;5.50;;;1.77;;
26953;SDS011;14508;50.924;11.600;2023-04-03T02:20:46;10.15;;;2.33;;
26953;SDS011;14508;50.924;11.600;2023-04-03T02:23:14;6.47;;;1.85;;
26953;SDS011;14508;50.924;11.600;2023-04-03T02:25:44;9.60;;;1.98;;
26953;SDS011;14508;50.924;11.600;2023-04-03T02:28:12;5.15;;;1.90;;
26953;SDS011;14508;50.924;11.600;2023-04-03T02:30:39;11.05;;;2.78;;
26953;SDS011;14508;50.924;11.600;2023-04-03T02:33:07;9.45;;;2.03;;
26953;SDS011;14508;50.924;11.600;2023-04-03T02:35:37;6.55;;;2.03;;
26953;SDS011;14508;50.924;11.600;2023-04-03T02:38:07;11.35;;;2.22;;
26953;SDS011;14508;50.924;11.600;2023-04-03T02:40:34;5.22;;;1.73;;
26953;SDS011;14508;50.924;11.600;2023-04-03T02:43:04;8.48;;;2.10;;
26953;SDS011;14508;50.924;11.600;2023-04-03T02:45:33;8.93;;;2.08;;
26953;SDS011;14508;50.924;11.600;2023-04-03T02:48:01;7.53;;;1.80;;
26953;SDS011;14508;50.924;11.600;2023-04-03T02:50:29;4.03;;;2.00;;
26953;SDS011;14508;50.924;11.600;2023-04-03T02:52:57;7.68;;;2.85;;
26953;SDS011;14508;50.924;11.600;2023-04-03T02:55:25;12.75;;;2.33;;
26953;SDS011;14508;50.924;11.600;2023-04-03T02:57:55;10.70;;;2.97;;
26953;SDS011;14508;50.924;11.600;2023-04-03T03:00:25;8.95;;;2.65;;
26953;SDS011;14508;50.924;11.600;2023-04-03T03:02:53;16.73;;;3.88;;
26953;SDS011;14508;50.924;11.600;2023-04-03T03:05:21;12.48;;;3.33;;
26953;SDS011;14508;50.924;11.600;2023-04-03T03:07:48;12.80;;;3.45;;
26953;SDS011;14508;50.924;11.600;2023-04-03T03:10:16;12.90;;;2.90;;
26953;SDS011;14508;50.924;11.600;2023-04-03T03:12:44;20.77;;;2.95;;
26953;SDS011;14508;50.924;11.600;2023-04-03T03:15:13;12.48;;;2.90;;
26953;SDS011;14508;50.924;11.600;2023-04-03T03:17:42;13.52;;;3.05;;
26953;SDS011;14508;50.924;11.600;2023-04-03T03:20:11;11.43;;;3.53;;
26953;SDS011;14508;50.924;11.600;2023-04-03T03:22:41;11.73;;;3.40;;
26953;SDS011;14508;50.924;11.600;2023-04-03T03:25:09;11.23;;;3.45;;
26953;SDS011;14508;50.924;11.600;2023-04-03T03:27:37;9.07;;;3.40;;
26953;SDS011;14508;50.924;11.600;2023-04-03T03:30:06;14.43;;;3.17;;
26953;SDS011;14508;50.924;11.600;2023-04-03T03:32:34;11.80;;;2.75;;
26953;SDS011;14508;50.924;11.600;2023-04-03T03:35:04;18.33;;;3.58;;
26953;SDS011;14508;50.924;11.600;2023-04-03T03:37:32;9.63;;;2.88;;
26953;SDS011;14508;50.924;11.600;2023-04-03T03:40:00;12.95;;;3.50;;
26953;SDS011;14508;50.924;11.600;2023-04-03T03:42:30;11.85;;;3.05;;
26953;SDS011;14508;50.924;11.600;2023-04-03T03:44:57;14.32;;;3.60;;
26953;SDS011;14508;50.924;11.600;2023-04-03T03:47:25;14.05;;;2.78;;
26953;SDS011;14508;50.924;11.600;2023-04-03T03:49:53;11.25;;;2.80;;
26953;SDS011;14508;50.924;11.600;2023-04-03T03:52:22;14.23;;;4.43;;
26953;SDS011;14508;50.924;11.600;2023-04-03T03:54:50;14.20;;;3.55;;
26953;SDS011;14508;50.924;11.600;2023-04-03T03:57:18;10.63;;;3.20;;
26953;SDS011;14508;50.924;11.600;2023-04-03T03:59:47;9.40;;;4.28;;
26953;SDS011;14508;50.924;11.600;2023-04-03T04:02:17;12.05;;;3.58;;
26953;SDS011;14508;50.924;11.600;2023-04-03T04:04:45;7.18;;;2.47;;
26953;SDS011;14508;50.924;11.600;2023-04-03T04:07:13;10.18;;;2.88;;
26953;SDS011;14508;50.924;11.600;2023-04-03T04:09:43;9.90;;;2.80;;
26953;SDS011;14508;50.924;11.600;2023-04-03T04:12:11;11.20;;;2.80;;
26953;SDS011;14508;50.924;11.600;2023-04-03T04:14:39;5.93;;;2.22;;
26953;SDS011;14508;50.924;11.600;2023-04-03T04:17:08;10.93;;;2.67;;
26953;SDS011;14508;50.924;11.600;2023-04-03T04:19:36;13.18;;;3.67;;
26953;SDS011;14508;50.924;11.600;2023-04-03T04:22:04;8.98;;;2.72;;
26953;SDS011;14508;50.924;11.600;2023-04-03T04:24:32;6.22;;;2.20;;
26953;SDS011;14508;50.924;11.600;2023-04-03T04:27:04;8.38;;;2.38;;
26953;SDS011;14508;50.924;11.600;2023-04-03T04:29:33;18.92;;;2.40;;
26953;SDS011;14508;50.924;11.600;2023-04-03T04:32:04;12.57;;;2.13;;
26953;SDS011;14508;50.924;11.600;2023-04-03T04:34:33;8.73;;;1.88;;
26953;SDS011;14508;50.924;11.600;2023-04-03T04:37:01;12.40;;;3.67;;
26953;SDS011;14508;50.924;11.600;2023-04-03T04:39:29;12.45;;;2.17;;
26953;SDS011;14508;50.924;11.600;2023-04-03T04:41:58;6.13;;;2.05;;
26953;SDS011;14508;50.924;11.600;2023-04-03T04:44:31;7.07;;;2.30;;
26953;SDS011;14508;50.924;11.600;2023-04-03T04:46:59;6.82;;;2.40;;
26953;SDS011;14508;50.924;11.600;2023-04-03T04:49:27;8.63;;;2.13;;
26953;SDS011;14508;50.924;11.600;2023-04-03T04:51:54;3.45;;;1.83;;
26953;SDS011;14508;50.924;11.600;2023-04-03T04:54:27;10.85;;;2.17;;
26953;SDS011;14508;50.924;11.600;2023-04-03T04:56:56;10.38;;;2.38;;
26953;SDS011;14508;50.924;11.600;2023-04-03T04:59:25;6.57;;;2.50;;
26953;SDS011;14508;50.924;11.600;2023-04-03T05:01:58;7.78;;;2.47;;
26953;SDS011;14508;50.924;11.600;2023-04-03T05:04:26;10.13;;;3.22;;
26953;SDS011;14508;50.924;11.600;2023-04-03T05:07:01;8.68;;;2.42;;
26953;SDS011;14508;50.924;11.600;2023-04-03T05:09:32;7.50;;;2.17;;
26953;SDS011;14508;50.924;11.600;2023-04-03T05:12:00;8.55;;;2.80;;
26953;SDS011;14508;50.924;11.600;2023-04-03T05:14:35;12.52;;;3.40;;
26953;SDS011;14508;50.924;11.600;2023-04-03T05:17:07;12.38;;;2.78;;
26953;SDS011;14508;50.924;11.600;2023-04-03T05:19:39;4.78;;;2.55;;
26953;SDS011;14508;50.924;11.600;2023-04-03T05:22:08;10.45;;;2.80;;
26953;SDS011;14508;50.924;11.600;2023-04-03T05:24:36;8.70;;;2.70;;
26953;SDS011;14508;50.924;11.600;2023-04-03T05:27:05;10.73;;;2.85;;
26953;SDS011;14508;50.924;11.600;2023-04-03T05:29:37;10.48;;;2.90;;
26953;SDS011;14508;50.924;11.600;2023-04-03T05:32:05;11.05;;;3.65;;
26953;SDS011;14508;50.924;11.600;2023-04-03T05:34:34;11.00;;;2.85;;
26953;SDS011;14508;50.924;11.600;2023-04-03T05:37:02;7.93;;;2.95;;
26953;SDS011;14508;50.924;11.600;2023-04-03T05:39:32;9.57;;;2.90;;
26953;SDS011;14508;50.924;11.600;2023-04-03T05:42:01;12.82;;;3.28;;
26953;SDS011;14508;50.924;11.600;2023-04-03T05:44:29;10.68;;;3.15;;
26953;SDS011;14508;50.924;11.600;2023-04-03T05:46:57;11.20;;;3.25;;
26953;SDS011;14508;50.924;11.600;2023-04-03T05:49:25;12.60;;;3.95;;
26953;SDS011;14508;50.924;11.600;2023-04-03T05:51:54;10.68;;;3.72;;
26953;SDS011;14508;50.924;11.600;2023-04-03T05:54:27;9.63;;;3.30;;
26953;SDS011;14508;50.924;11.600;2023-04-03T05:57:09;13.70;;;3.47;;
26953;SDS011;14508;50.924;11.600;2023-04-03T05:59:40;12.15;;;3.25;;
26953;SDS011;14508;50.924;11.600;2023-04-03T06:02:09;10.80;;;3.42;;
26953;SDS011;14508;50.924;11.600;2023-04-03T06:04:38;9.10;;;3.05;;
26953;SDS011;14508;50.924;11.600;2023-04-03T06:07:09;12.00;;;3.67;;
26953;SDS011;14508;50.924;11.600;2023-04-03T06:09:38;5.90;;;2.75;;
26953;SDS011;14508;50.924;11.600;2023-04-03T06:12:07;9.93;;;3.40;;
26953;SDS011;14508;50.924;11.600;2023-04-03T06:14:36;9.20;;;3.55;;
26953;SDS011;14508;50.924;11.600;2023-04-03T06:17:04;8.43;;;2.95;;
26953;SDS011;14508;50.924;11.600;2023-04-03T06:19:32;7.90;;;2.42;;
26953;SDS011;14508;50.924;11.600;2023-04-03T06:22:00;9.98;;;2.85;;
26953;SDS011;14508;50.924;11.600;2023-04-03T06:24:30;7.30;;;2.63;;
26953;SDS011;14508;50.924;11.600;2023-04-03T06:26:58;9.50;;;2.28;;
26953;SDS011;14508;50.924;11.600;2023-04-03T06:29:26;13.75;;;3.45;;
26953;SDS011;14508;50.924;11.600;2023-04-03T06:31:54;7.68;;;2.38;;
26953;SDS011;14508;50.924;11.600;2023-04-03T06:34:22;9.43;;;2.40;;
26953;SDS011;14508;50.924;11.600;2023-04-03T06:36:50;13.18;;;2.55;;
26953;SDS011;14508;50.924;11.600;2023-04-03T06:39:19;10.00;;;2.30;;
26953;SDS011;14508;50.924;11.600;2023-04-03T06:41:50;5.88;;;2.17;;
26953;SDS011;14508;50.924;11.600;2023-04-03T06:44:26;8.10;;;2.40;;
26953;SDS011;14508;50.924;11.600;2023-04-03T06:46:54;8.05;;;1.92;;
26953;SDS011;14508;50.924;11.600;2023-04-03T06:49:22;7.53;;;1.77;;
26953;SDS011;14508;50.924;11.600;2023-04-03T06:51:49;6.85;;;2.05;;
26953;SDS011;14508;50.924;11.600;2023-04-03T06:54:17;4.90;;;1.85;;
26953;SDS011;14508;50.924;11.600;2023-04-03T06:56:45;6.72;;;2.40;;
26953;SDS011;14508;50.924;11.600;2023-04-03T06:59:14;6.60;;;2.38;;
26953;SDS011;14508;50.924;11.600;2023-04-03T07:01:43;3.58;;;1.20;;
26953;SDS011;14508;50.924;11.600;2023-04-03T07:04:11;13.48;;;2.75;;
26953;SDS011;14508;50.924;11.600;2023-04-03T07:06:39;12.15;;;2.20;;
26953;SDS011;14508;50.924;11.600;2023-04-03T07:09:08;9.27;;;2.00;;
26953;SDS011;14508;50.924;11.600;2023-04-03T07:11:36;8.98;;;2.13;;
26953;SDS011;14508;50.924;11.600;2023-04-03T07:14:05;5.97;;;1.95;;
26953;SDS011;14508;50.924;11.600;2023-04-03T07:16:35;7.57;;;2.00;;
26953;SDS011;14508;50.924;11.600;2023-04-03T07:19:06;4.38;;;2.42;;
26953;SDS011;14508;50.924;11.600;2023-04-03T07:21:36;5.82;;;2.13;;
26953;SDS011;14508;50.924;11.600;2023-04-03T07:24:04;18.42;;;2.83;;
26953;SDS011;14508;50.924;11.600;2023-04-03T07:26:35;6.47;;;2.38;;
26953;SDS011;14508;50.924;11.600;2023-04-03T07:29:03;8.38;;;3.03;;
26953;SDS011;14508;50.924;11.600;2023-04-03T07:31:31;13.15;;;3.58;;
26953;SDS011;14508;50.924;11.600;2023-04-03T07:34:01;18.55;;;3.72;;
26953;SDS011;14508;50.924;11.600;2023-04-03T07:36:29;10.82;;;4.18;;
26953;SDS011;14508;50.924;11.600;2023-04-03T07:38:59;10.23;;;4.10;;
26953;SDS011;14508;50.924;11.600;2023-04-03T07:41:27;9.98;;;4.40;;
26953;SDS011;14508;50.924;11.600;2023-04-03T07:43:55;13.90;;;4.82;;
26953;SDS011;14508;50.924;11.600;2023-04-03T07:46:23;11.77;;;4.75;;
26953;SDS011;14508;50.924;11.600;2023-04-03T07:48:52;14.35;;;5.43;;
26953;SDS011;14508;50.924;11.600;2023-04-03T07:51:23;14.50;;;4.72;;
26953;SDS011;14508;50.924;11.600;2023-04-03T07:53:52;16.45;;;5.07;;
26953;SDS011;14508;50.924;11.600;2023-04-03T07:56:20;15.38;;;4.88;;
26953;SDS011;14508;50.924;11.600;2023-04-03T07:58:48;21.17;;;5.15;;
26953;SDS011;14508;50.924;11.600;2023-04-03T08:01:16;15.05;;;5.50;;
26953;SDS011;14508;50.924;11.600;2023-04-03T08:03:44;12.52;;;5.57;;
26953;SDS011;14508;50.924;11.600;2023-04-03T08:06:12;17.05;;;5.63;;
26953;SDS011;14508;50.924;11.600;2023-04-03T08:08:45;12.85;;;4.22;;
26953;SDS011;14508;50.924;11.600;2023-04-03T08:11:13;11.32;;;4.32;;
26953;SDS011;14508;50.924;11.600;2023-04-03T08:13:41;11.45;;;3.78;;
26953;SDS011;14508;50.924;11.600;2023-04-03T08:16:10;14.70;;;3.53;;
26953;SDS011;14508;50.924;11.600;2023-04-03T08:18:39;9.33;;;2.90;;
26953;SDS011;14508;50.924;11.600;2023-04-03T08:21:07;14.88;;;3.35;;
26953;SDS011;14508;50.924;11.600;2023-04-03T08:23:36;6.85;;;3.13;;
26953;SDS011;14508;50.924;11.600;2023-04-03T08:26:07;9.50;;;3.47;;
26953;SDS011;14508;50.924;11.600;2023-04-03T08:28:36;9.70;;;2.63;;
26953;SDS011;14508;50.924;11.600;2023-04-03T08:31:04;15.13;;;2.80;;
26953;SDS011;14508;50.924;11.600;2023-04-03T08:33:33;5.32;;;2.65;;
26953;SDS011;14508;50.924;11.600;2023-04-03T08:36:03;6.15;;;2.50;;
26953;SDS011;14508;50.924;11.600;2023-04-03T08:38:32;4.80;;;2.00;;
26953;SDS011;14508;50.924;11.600;2023-04-03T08:41:04;5.20;;;2.30;;
26953;SDS011;14508;50.924;11.600;2023-04-03T08:43:45;11.52;;;2.72;;
26953;SDS011;14508;50.924;11.600;2023-04-03T08:46:22;4.35;;;2.30;;
26953;SDS011;14508;50.924;11.600;2023-04-03T08:48:59;6.55;;;2.40;;
26953;SDS011;14508;50.924;11.600;2023-04-03T08:51:27;8.32;;;2.70;;
26953;SDS011;14508;50.924;11.600;2023-04-03T08:53:58;8.02;;;2.50;;
26953;SDS011;14508;50.924;11.600;2023-04-03T08:56:32;6.32;;;2.42;;
26953;SDS011;14508;50.924;11.600;2023-04-03T08:59:03;7.32;;;2.40;;
26953;SDS011;14508;50.924;11.600;2023-04-03T09:01:37;5.53;;;1.90;;
26953;SDS011;14508;50.924;11.600;2023-04-03T09:04:09;5.07;;;2.22;;
26953;SDS011;14508;50.924;11.600;2023-04-03T09:06:39;5.68;;;2.28;;
26953;SDS011;14508;50.924;11.600;2023-04-03T09:09:12;6.93;;;2.20;;
26953;SDS011;14508;50.924;11.600;2023-04-03T09:11:50;7.80;;;2.30;;
26953;SDS011;14508;50.924;11.600;2023-04-03T09:14:29;10.10;;;3.15;;
26953;SDS011;14508;50.924;11.600;2023-04-03T09:17:03;4.78;;;2.03;;
26953;SDS011;14508;50.924;11.600;2023-04-03T09:19:38;6.25;;;2.20;;
26953;SDS011;14508;50.924;11.600;2023-04-03T09:22:13;6.45;;;2.65;;
26953;SDS011;14508;50.924;11.600;2023-04-03T09:24:45;6.78;;;2.35;;
26953;SDS011;14508;50.924;11.600;2023-04-03T09:27:18;8.48;;;2.83;;
26953;SDS011;14508;50.924;11.600;2023-04-03T09:29:46;6.70;;;2.50;;
26953;SDS011;14508;50.924;11.600;2023-04-03T09:32:18;3.50;;;1.90;;
26953;SDS011;14508;50.924;11.600;2023-04-03T09:34:49;5.15;;;2.55;;
26953;SDS011;14508;50.924;11.600;2023-04-03T09:37:39;6.68;;;2.70;;
26953;SDS011;14508;50.924;11.600;2023-04-03T09:40:28;6.65;;;1.90;;
26953;SDS011;14508;50.924;11.600;2023-04-03T09:43:20;4.53;;;2.05;;
26953;SDS011;14508;50.924;11.600;2023-04-03T09:45:54;6.65;;;1.65;;
26953;SDS011;14508;50.924;11.600;2023-04-03T09:48:23;5.70;;;1.40;;
26953;SDS011;14508;50.924;11.600;2023-04-03T09:50:54;5.25;;;2.17;;
26953;SDS011;14508;50.924;11.600;2023-04-03T09:53:29;3.85;;;1.63;;
26953;SDS011;14508;50.924;11.600;2023-04-03T09:56:03;4.18;;;1.60;;
26953;SDS011;14508;50.924;11.600;2023-04-03T09:58:47;4.32;;;1.30;;
26953;SDS011;14508;50.924;11.600;2023-04-03T10:01:24;6.53;;;1.30;;
26953;SDS011;14508;50.924;11.600;2023-04-03T10:04:05;3.03;;;0.90;;
26953;SDS011;14508;50.924;11.600;2023-04-03T10:06:35;4.13;;;1.05;;
26953;SDS011;14508;50.924;11.600;2023-04-03T10:09:19;3.22;;;1.10;;
26953;SDS011;14508;50.924;11.600;2023-04-03T10:11:59;2.03;;;0.90;;
26953;SDS011;14508;50.924;11.600;2023-04-03T10:14:32;2.15;;;0.82;;
26953;SDS011;14508;50.924;11.600;2023-04-03T10:17:03;3.08;;;0.77;;
26953;SDS011;14508;50.924;11.600;2023-04-03T10:19:45;0.98;;;0.65;;
26953;SDS011;14508;50.924;11.600;2023-04-03T10:22:18;2.55;;;1.00;;
26953;SDS011;14508;50.924;11.600;2023-04-03T10:24:57;4.47;;;1.05;;
26953;SDS011;14508;50.924;11.600;2023-04-03T10:27:33;3.38;;;1.25;;
26953;SDS011;14508;50.924;11.600;2023-04-03T10:30:16;1.05;;;0.65;;
26953;SDS011;14508;50.924;11.600;2023-04-03T10:32:59;1.70;;;0.70;;
26953;SDS011;14508;50.924;11.600;2023-04-03T10:35:42;4.80;;;0.90;;
26953;SDS011;14508;50.924;11.600;2023-04-03T10:38:17;6.55;;;1.25;;
26953;SDS011;14508;50.924;11.600;2023-04-03T10:40:51;4.22;;;0.80;;
26953;SDS011;14508;50.924;11.600;2023-04-03T10:43:26;5.95;;;1.40;;
26953;SDS011;14508;50.924;11.600;2023-04-03T10:46:03;4.03;;;0.70;;
26953;SDS011;14508;50.924;11.600;2023-04-03T10:48:40;1.70;;;1.00;;
26953;SDS011;14508;50.924;11.600;2023-04-03T10:51:20;2.70;;;1.27;;
26953;SDS011;14508;50.924;11.600;2023-04-03T10:53:55;2.67;;;1.08;;
26953;SDS011;14508;50.924;11.600;2023-04-03T10:56:30;2.38;;;0.98;;
26953;SDS011;14508;50.924;11.600;2023-04-03T11:01:42;2.28;;;0.98;;
26953;SDS011;14508;50.924;11.600;2023-04-03T11:04:13;5.18;;;1.45;;
26953;SDS011;14508;50.924;11.600;2023-04-03T11:06:44;5.22;;;1.10;;
26953;SDS011;14508;50.924;11.600;2023-04-03T11:09:19;5.32;;;1.08;;
26953;SDS011;14508;50.924;11.600;2023-04-03T11:11:51;4.35;;;1.40;;
26953;SDS011;14508;50.924;11.600;2023-04-03T11:14:24;2.35;;;0.98;;
26953;SDS011;14508;50.924;11.600;2023-04-03T11:17:02;2.67;;;0.82;;
26953;SDS011;14508;50.924;11.600;2023-04-03T11:19:37;3.60;;;0.90;;
26953;SDS011;14508;50.924;11.600;2023-04-03T11:22:10;3.33;;;0.93;;
26953;SDS011;14508;50.924;11.600;2023-04-03T11:24:54;2.85;;;1.15;;
26953;SDS011;14508;50.924;11.600;2023-04-03T11:27:26;9.13;;;1.30;;
26953;SDS011;14508;50.924;11.600;2023-04-03T11:29:59;4.60;;;1.10;;
26953;SDS011;14508;50.924;11.600;2023-04-03T11:32:35;8.85;;;1.15;;
26953;SDS011;14508;50.924;11.600;2023-04-03T11:35:25;4.68;;;1.20;;
26953;SDS011;14508;50.924;11.600;2023-04-03T11:37:54;5.22;;;1.20;;
26953;SDS011;14508;50.924;11.600;2023-04-03T11:40:24;2.80;;;1.17;;
26953;SDS011;14508;50.924;11.600;2023-04-03T11:42:54;4.13;;;1.20;;
26953;SDS011;14508;50.924;11.600;2023-04-03T11:45:35;2.85;;;0.90;;
26953;SDS011;14508;50.924;11.600;2023-04-03T11:48:06;3.08;;;1.13;;
26953;SDS011;14508;50.924;11.600;2023-04-03T11:50:58;3.75;;;0.90;;
26953;SDS011;14508;50.924;11.600;2023-04-03T11:53:28;4.10;;;0.98;;
26953;SDS011;14508;50.924;11.600;2023-04-03T11:59:15;5.50;;;1.42;;
26953;SDS011;14508;50.924;11.600;2023-04-03T12:01:49;3.60;;;0.95;;
26953;SDS011;14508;50.924;11.600;2023-04-03T12:04:21;2.15;;;1.48;;
26953;SDS011;14508;50.924;11.600;2023-04-03T12:06:52;4.13;;;1.40;;
26953;SDS011;14508;50.924;11.600;2023-04-03T12:12:57;4.63;;;1.13;;
26953;SDS011;14508;50.924;11.600;2023-04-03T12:21:24;4.22;;;1.77;;
26953;SDS011;14508;50.924;11.600;2023-04-03T12:24:33;2.22;;;0.98;;
26953;SDS011;14508;50.924;11.600;2023-04-03T12:27:04;4.13;;;1.13;;
26953;SDS011;14508;50.924;11.600;2023-04-03T12:29:38;1.17;;;0.70;;
26953;SDS011;14508;50.924;11.600;2023-04-03T12:32:12;1.42;;;0.88;;
26953;SDS011;14508;50.924;11.600;2023-04-03T12:34:54;2.17;;;1.00;;
26953;SDS011;14508;50.924;11.600;2023-04-03T12:37:37;10.35;;;2.20;;
26953;SDS011;14508;50.924;11.600;2023-04-03T12:40:15;1.85;;;1.05;;
26953;SDS011;14508;50.924;11.600;2023-04-03T12:43:02;6.55;;;1.38;;
26953;SDS011;14508;50.924;11.600;2023-04-03T12:45:40;1.80;;;1.02;;
26953;SDS011;14508;50.924;11.600;2023-04-03T12:48:15;2.00;;;1.10;;
26953;SDS011;14508;50.924;11.600;2023-04-03T12:50:45;7.13;;;1.50;;
26953;SDS011;14508;50.924;11.600;2023-04-03T12:53:16;4.82;;;1.95;;
26953;SDS011;14508;50.924;11.600;2023-04-03T12:55:46;5.13;;;2.17;;
26953;SDS011;14508;50.924;11.600;2023-04-03T12:58:20;5.40;;;1.35;;
26953;SDS011;14508;50.924;11.600;2023-04-03T13:03:28;8.45;;;1.73;;
26953;SDS011;14508;50.924;11.600;2023-04-03T13:05:57;3.92;;;1.38;;
26953;SDS011;14508;50.924;11.600;2023-04-03T13:08:29;5.07;;;1.05;;
26953;SDS011;14508;50.924;11.600;2023-04-03T13:10:58;3.40;;;0.95;;
26953;SDS011;14508;50.924;11.600;2023-04-03T13:13:29;4.53;;;1.38;;
26953;SDS011;14508;50.924;11.600;2023-04-03T13:15:57;6.68;;;1.58;;
26953;SDS011;14508;50.924;11.600;2023-04-03T13:18:30;7.50;;;2.58;;
26953;SDS011;14508;50.924;11.600;2023-04-03T13:21:01;3.92;;;1.83;;
26953;SDS011;14508;50.924;11.600;2023-04-03T13:23:34;10.90;;;3.83;;
26953;SDS011;14508;50.924;11.600;2023-04-03T13:26:05;9.68;;;1.85;;
26953;SDS011;14508;50.924;11.600;2023-04-03T13:28:34;5.72;;;1.80;;
26953;SDS011;14508;50.924;11.600;2023-04-03T13:31:04;13.93;;;4.70;;
26953;SDS011;14508;50.924;11.600;2023-04-03T13:33:36;6.05;;;2.53;;
26953;SDS011;14508;50.924;11.600;2023-04-03T13:36:06;5.03;;;1.85;;
26953;SDS011;14508;50.924;11.600;2023-04-03T13:38:40;5.22;;;1.90;;
26953;SDS011;14508;50.924;11.600;2023-04-03T13:41:21;4.55;;;1.50;;
26953;SDS011;14508;50.924;11.600;2023-04-03T13:43:51;10.40;;;1.95;;
26953;SDS011;14508;50.924;11.600;2023-04-03T13:46:35;9.75;;;1.60;;
26953;SDS011;14508;50.924;11.600;2023-04-03T13:49:09;4.28;;;1.50;;
26953;SDS011;14508;50.924;11.600;2023-04-03T13:51:45;7.50;;;1.67;;
26953;SDS011;14508;50.924;11.600;2023-04-03T13:54:38;5.25;;;1.38;;
26953;SDS011;14508;50.924;11.600;2023-04-03T13:57:12;4.68;;;1.50;;
26953;SDS011;14508;50.924;11.600;2023-04-03T14:02:13;7.47;;;1.75;;
26953;SDS011;14508;50.924;11.600;2023-04-03T14:04:45;4.50;;;1.20;;
26953;SDS011;14508;50.924;11.600;2023-04-03T14:07:19;3.50;;;1.38;;
26953;SDS011;14508;50.924;11.600;2023-04-03T14:09:48;7.60;;;1.63;;
26953;SDS011;14508;50.924;11.600;2023-04-03T14:12:17;3.97;;;1.27;;
26953;SDS011;14508;50.924;11.600;2023-04-03T14:14:57;4.45;;;1.73;;
26953;SDS011;14508;50.924;11.600;2023-04-03T14:17:27;2.75;;;1.55;;
26953;SDS011;14508;50.924;11.600;2023-04-03T14:19:55;4.97;;;0.98;;
26953;SDS011;14508;50.924;11.600;2023-04-03T14:22:25;7.63;;;2.03;;
26953;SDS011;14508;50.924;11.600;2023-04-03T14:24:56;11.48;;;2.25;;
26953;SDS011;14508;50.924;11.600;2023-04-03T14:27:25;7.22;;;1.90;;
26953;SDS011;14508;50.924;11.600;2023-04-03T14:29:55;7.55;;;1.63;;
26953;SDS011;14508;50.924;11.600;2023-04-03T14:32:24;6.72;;;1.33;;
26953;SDS011;14508;50.924;11.600;2023-04-03T14:34:53;4.85;;;1.40;;
26953;SDS011;14508;50.924;11.600;2023-04-03T14:37:24;5.68;;;1.58;;
26953;SDS011;14508;50.924;11.600;2023-04-03T14:39:55;2.75;;;1.45;;
26953;SDS011;14508;50.924;11.600;2023-04-03T14:42:26;3.35;;;1.50;;
26953;SDS011;14508;50.924;11.600;2023-04-03T14:44:57;5.88;;;1.40;;
26953;SDS011;14508;50.924;11.600;2023-04-03T14:47:26;6.95;;;1.55;;
26953;SDS011;14508;50.924;11.600;2023-04-03T14:49:58;4.28;;;1.85;;
26953;SDS011;14508;50.924;11.600;2023-04-03T14:52:28;4.57;;;1.52;;
26953;SDS011;14508;50.924;11.600;2023-04-03T14:54:59;6.13;;;1.75;;
26953;SDS011;14508;50.924;11.600;2023-04-03T14:57:28;3.58;;;1.40;;
26953;SDS011;14508;50.924;11.600;2023-04-03T14:59:57;6.93;;;2.13;;
26953;SDS011;14508;50.924;11.600;2023-04-03T15:02:27;5.95;;;1.80;;
26953;SDS011;14508;50.924;11.600;2023-04-03T15:04:57;4.50;;;1.73;;
26953;SDS011;14508;50.924;11.600;2023-04-03T15:07:27;5.80;;;1.65;;
26953;SDS011;14508;50.924;11.600;2023-04-03T15:09:57;2.10;;;1.05;;
26953;SDS011;14508;50.924;11.600;2023-04-03T15:12:27;3.38;;;1.63;;
26953;SDS011;14508;50.924;11.600;2023-04-03T15:14:55;8.45;;;1.85;;
26953;SDS011;14508;50.924;11.600;2023-04-03T15:17:28;2.47;;;1.50;;